createdAt,value
2017-11-26T00:00:56.139Z,4.74
2017-11-26T00:01:56.545Z,4.73
2017-11-26T00:02:56.988Z,4.73
2017-11-26T00:03:57.409Z,4.67
2017-11-26T00:04:57.809Z,4.66
2017-11-26T00:05:58.241Z,4.70
2017-11-26T00:06:58.677Z,4.58
2017-11-26T00:07:59.126Z,4.59
2017-11-26T00:08:59.517Z,4.59
2017-11-26T00:09:59.966Z,4.58
2017-11-26T00:11:00.368Z,4.48
2017-11-26T00:12:00.777Z,4.56
2017-11-26T00:13:01.183Z,4.62
2017-11-26T00:14:01.600Z,4.59
2017-11-26T00:15:02.017Z,4.74
2017-11-26T00:16:02.443Z,4.62
2017-11-26T00:17:02.857Z,4.73
2017-11-26T00:18:03.283Z,4.53
2017-11-26T00:19:03.699Z,4.63
2017-11-26T00:20:04.128Z,4.63
2017-11-26T00:21:04.546Z,4.60
2017-11-26T00:22:04.984Z,4.58
2017-11-26T00:23:05.383Z,4.58
2017-11-26T00:24:05.798Z,4.70
2017-11-26T00:25:06.238Z,4.70
2017-11-26T00:26:06.653Z,4.70
2017-11-26T00:27:07.064Z,4.77
2017-11-26T00:28:07.501Z,4.63
2017-11-26T00:29:07.907Z,4.73
2017-11-26T00:30:08.334Z,4.74
2017-11-26T00:31:08.751Z,4.62
2017-11-26T00:32:09.170Z,4.55
2017-11-26T00:33:09.604Z,4.63
2017-11-26T00:34:10.029Z,4.55
2017-11-26T00:35:10.461Z,4.56
2017-11-26T00:36:10.876Z,4.50
2017-11-26T00:37:11.281Z,4.52
2017-11-26T00:38:12.237Z,4.48
2017-11-26T00:39:12.112Z,4.50
2017-11-26T00:40:12.554Z,4.55
2017-11-26T00:41:12.968Z,4.42
2017-11-26T00:42:13.402Z,4.48
2017-11-26T00:43:13.798Z,4.55
2017-11-26T00:44:14.231Z,4.56
2017-11-26T00:45:14.643Z,4.48
2017-11-26T00:46:15.066Z,4.40
2017-11-26T00:47:15.485Z,4.53
2017-11-26T00:48:15.904Z,4.44
2017-11-26T00:49:16.327Z,4.45
2017-11-26T00:50:16.758Z,4.50
2017-11-26T00:51:17.210Z,4.52
2017-11-26T00:52:17.598Z,4.53
2017-11-26T00:53:18.010Z,4.53
2017-11-26T00:54:18.426Z,4.52
2017-11-26T00:55:18.854Z,4.42
2017-11-26T00:56:19.272Z,4.48
2017-11-26T00:57:19.691Z,4.53
2017-11-26T00:58:20.128Z,4.49
2017-11-26T00:59:20.542Z,4.45
2017-11-26T01:00:20.973Z,4.48
2017-11-26T01:01:21.385Z,4.40
2017-11-26T01:02:21.832Z,4.41
2017-11-26T01:03:22.210Z,4.37
2017-11-26T01:04:22.638Z,4.44
2017-11-26T01:05:23.058Z,4.44
2017-11-26T01:06:23.492Z,4.45
2017-11-26T01:07:23.901Z,4.40
2017-11-26T01:08:24.332Z,4.41
2017-11-26T01:09:24.743Z,4.50
2017-11-26T01:10:25.160Z,4.50
2017-11-26T01:11:25.573Z,4.48
2017-11-26T01:12:25.999Z,4.53
2017-11-26T01:13:26.431Z,4.42
2017-11-26T01:14:26.844Z,4.42
2017-11-26T01:15:27.273Z,4.44
2017-11-26T01:16:27.686Z,4.48
2017-11-26T01:17:28.100Z,4.44
2017-11-26T01:18:28.522Z,4.48
2017-11-26T01:19:28.970Z,4.48
2017-11-26T01:20:29.374Z,4.44
2017-11-26T01:21:29.806Z,4.41
2017-11-26T01:22:30.214Z,4.32
2017-11-26T01:23:31.244Z,4.32
2017-11-26T01:24:31.053Z,4.41
2017-11-26T01:25:31.509Z,4.40
2017-11-26T01:26:31.881Z,4.37
2017-11-26T01:27:32.310Z,4.35
2017-11-26T01:28:32.741Z,4.30
2017-11-26T01:29:33.164Z,4.34
2017-11-26T01:30:33.609Z,4.32
2017-11-26T01:31:33.984Z,4.37
2017-11-26T01:32:34.421Z,4.34
2017-11-26T01:33:34.831Z,4.34
2017-11-26T01:34:35.263Z,4.34
2017-11-26T01:35:35.674Z,4.28
2017-11-26T01:36:36.153Z,4.44
2017-11-26T01:37:36.511Z,4.34
2017-11-26T01:38:36.960Z,4.42
2017-11-26T01:39:37.347Z,4.50
2017-11-26T01:40:37.817Z,4.49
2017-11-26T01:41:38.231Z,4.34
2017-11-26T01:42:38.657Z,4.45
2017-11-26T01:43:39.056Z,4.42
2017-11-26T01:44:39.458Z,4.40
2017-11-26T01:45:39.876Z,4.41
2017-11-26T01:46:40.303Z,4.48
2017-11-26T01:47:40.716Z,4.34
2017-11-26T01:48:41.138Z,4.32
2017-11-26T01:49:41.561Z,4.31
2017-11-26T01:50:41.981Z,4.30
2017-11-26T01:51:42.407Z,4.30
2017-11-26T01:52:42.822Z,4.31
2017-11-26T01:53:43.248Z,4.42
2017-11-26T01:54:43.665Z,4.32
2017-11-26T01:55:44.083Z,4.26
2017-11-26T01:56:44.511Z,4.34
2017-11-26T01:57:44.931Z,4.32
2017-11-26T01:58:45.353Z,4.28
2017-11-26T01:59:45.768Z,4.34
2017-11-26T02:00:46.191Z,4.30
2017-11-26T02:01:46.611Z,4.28
2017-11-26T02:02:47.032Z,4.34
2017-11-26T02:03:47.444Z,4.37
2017-11-26T02:04:47.866Z,4.34
2017-11-26T02:05:48.296Z,4.31
2017-11-26T02:06:48.711Z,4.31
2017-11-26T02:07:49.130Z,4.34
2017-11-26T02:08:49.552Z,4.31
2017-11-26T02:09:49.970Z,4.34
2017-11-26T02:10:50.396Z,4.40
2017-11-26T02:11:50.811Z,4.32
2017-11-26T02:12:51.237Z,4.28
2017-11-26T02:13:51.650Z,4.31
2017-11-26T02:14:52.080Z,4.37
2017-11-26T02:15:52.495Z,4.30
2017-11-26T02:16:52.912Z,4.23
2017-11-26T02:17:53.334Z,4.17
2017-11-26T02:18:53.756Z,4.19
2017-11-26T02:19:54.175Z,4.22
2017-11-26T02:20:54.596Z,4.08
2017-11-26T02:21:55.019Z,4.08
2017-11-26T02:22:55.441Z,4.13
2017-11-26T02:23:55.866Z,4.20
2017-11-26T02:24:56.282Z,4.13
2017-11-26T02:25:56.704Z,4.12
2017-11-26T02:26:57.119Z,4.10
2017-11-26T02:27:57.542Z,3.98
2017-11-26T02:28:57.969Z,4.12
2017-11-26T02:29:58.387Z,4.05
2017-11-26T02:30:58.808Z,4.17
2017-11-26T02:31:59.226Z,4.13
2017-11-26T02:32:59.644Z,4.16
2017-11-26T02:34:00.065Z,4.04
2017-11-26T02:35:00.490Z,4.06
2017-11-26T02:36:00.913Z,3.99
2017-11-26T02:37:01.335Z,4.20
2017-11-26T02:38:01.748Z,4.05
2017-11-26T02:39:02.172Z,4.04
2017-11-26T02:40:02.595Z,3.99
2017-11-26T02:41:03.016Z,4.05
2017-11-26T02:42:03.438Z,4.08
2017-11-26T02:43:03.853Z,4.08
2017-11-26T02:44:04.279Z,4.04
2017-11-26T02:45:04.701Z,4.10
2017-11-26T02:46:05.119Z,4.12
2017-11-26T02:47:05.536Z,4.08
2017-11-26T02:48:05.956Z,4.19
2017-11-26T02:49:06.376Z,4.12
2017-11-26T02:50:06.799Z,4.02
2017-11-26T02:51:07.218Z,4.06
2017-11-26T02:52:07.648Z,4.04
2017-11-26T02:53:08.064Z,4.05
2017-11-26T02:54:08.481Z,4.04
2017-11-26T02:55:08.902Z,3.96
2017-11-26T02:56:09.321Z,3.96
2017-11-26T02:57:09.743Z,3.96
2017-11-26T02:58:10.168Z,3.98
2017-11-26T02:59:10.589Z,3.91
2017-11-26T03:00:11.004Z,3.96
2017-11-26T03:01:11.427Z,3.88
2017-11-26T03:02:11.846Z,3.88
2017-11-26T03:03:12.273Z,3.84
2017-11-26T03:04:12.689Z,3.86
2017-11-26T03:05:13.109Z,3.88
2017-11-26T03:06:13.536Z,3.84
2017-11-26T03:07:13.951Z,3.78
2017-11-26T03:08:14.371Z,3.73
2017-11-26T03:09:14.799Z,3.86
2017-11-26T03:10:15.214Z,3.80
2017-11-26T03:11:15.638Z,3.77
2017-11-26T03:12:16.057Z,3.76
2017-11-26T03:13:16.473Z,3.62
2017-11-26T03:14:16.895Z,3.74
2017-11-26T03:15:17.327Z,3.77
2017-11-26T03:16:17.737Z,3.59
2017-11-26T03:17:18.180Z,3.59
2017-11-26T03:18:18.597Z,3.63
2017-11-26T03:19:19.028Z,3.63
2017-11-26T03:20:19.418Z,3.63
2017-11-26T03:21:19.856Z,3.73
2017-11-26T03:22:20.264Z,3.65
2017-11-26T03:23:20.679Z,3.63
2017-11-26T03:24:21.108Z,3.62
2017-11-26T03:25:21.524Z,3.58
2017-11-26T03:26:21.939Z,3.62
2017-11-26T03:27:22.365Z,3.59
2017-11-26T03:28:22.789Z,3.56
2017-11-26T03:29:23.207Z,3.53
2017-11-26T03:30:23.629Z,3.58
2017-11-26T03:31:24.066Z,3.51
2017-11-26T03:32:24.470Z,3.59
2017-11-26T03:33:24.885Z,3.41
2017-11-26T03:34:25.309Z,3.48
2017-11-26T03:35:25.726Z,3.44
2017-11-26T03:36:26.150Z,3.44
2017-11-26T03:37:26.571Z,3.42
2017-11-26T03:38:26.989Z,3.44
2017-11-26T03:39:27.407Z,3.45
2017-11-26T03:40:27.838Z,3.45
2017-11-26T03:41:28.247Z,3.51
2017-11-26T03:42:28.668Z,3.45
2017-11-26T03:43:29.095Z,3.42
2017-11-26T03:44:29.513Z,3.37
2017-11-26T03:45:29.938Z,3.44
2017-11-26T03:46:30.358Z,3.29
2017-11-26T03:47:30.772Z,3.32
2017-11-26T03:48:31.191Z,3.34
2017-11-26T03:49:31.618Z,3.31
2017-11-26T03:50:32.030Z,3.31
2017-11-26T03:51:32.449Z,3.29
2017-11-26T03:52:32.872Z,3.28
2017-11-26T03:53:33.298Z,3.26
2017-11-26T03:54:33.724Z,3.37
2017-11-26T03:55:34.136Z,3.26
2017-11-26T03:56:34.560Z,3.32
2017-11-26T03:57:34.973Z,3.37
2017-11-26T03:58:35.415Z,3.26
2017-11-26T03:59:35.821Z,3.22
2017-11-26T04:00:36.235Z,3.25
2017-11-26T04:01:36.654Z,3.14
2017-11-26T04:02:37.075Z,3.19
2017-11-26T04:03:37.504Z,3.21
2017-11-26T04:04:37.922Z,3.16
2017-11-26T04:05:38.342Z,3.10
2017-11-26T04:06:38.761Z,3.21
2017-11-26T04:07:39.181Z,3.19
2017-11-26T04:08:39.599Z,3.21
2017-11-26T04:09:40.020Z,3.16
2017-11-26T04:10:40.451Z,3.14
2017-11-26T04:11:40.856Z,3.11
2017-11-26T04:12:41.277Z,3.11
2017-11-26T04:13:41.696Z,3.23
2017-11-26T04:14:42.117Z,3.22
2017-11-26T04:15:42.539Z,3.14
2017-11-26T04:16:42.960Z,3.10
2017-11-26T04:17:43.381Z,3.11
2017-11-26T04:18:43.799Z,3.10
2017-11-26T04:19:44.217Z,3.11
2017-11-26T04:20:44.640Z,3.07
2017-11-26T04:21:45.063Z,3.07
2017-11-26T04:22:45.480Z,3.07
2017-11-26T04:23:45.906Z,3.10
2017-11-26T04:24:46.314Z,3.05
2017-11-26T04:25:46.740Z,3.08
2017-11-26T04:26:47.159Z,3.10
2017-11-26T04:27:47.600Z,3.07
2017-11-26T04:28:48.005Z,3.08
2017-11-26T04:29:48.422Z,3.03
2017-11-26T04:30:48.838Z,3.07
2017-11-26T04:31:49.264Z,3.04
2017-11-26T04:32:49.680Z,3.03
2017-11-26T04:33:50.096Z,3.08
2017-11-26T04:34:50.518Z,3.05
2017-11-26T04:35:50.940Z,3.08
2017-11-26T04:36:51.354Z,3.10
2017-11-26T04:37:51.778Z,3.08
2017-11-26T04:38:52.219Z,3.10
2017-11-26T04:39:52.624Z,3.07
2017-11-26T04:40:53.036Z,3.11
2017-11-26T04:41:53.462Z,3.07
2017-11-26T04:42:53.876Z,3.13
2017-11-26T04:43:54.299Z,3.07
2017-11-26T04:44:54.714Z,3.04
2017-11-26T04:45:55.139Z,3.14
2017-11-26T04:46:55.556Z,3.08
2017-11-26T04:47:55.977Z,3.07
2017-11-26T04:48:56.410Z,3.07
2017-11-26T04:49:56.837Z,3.07
2017-11-26T04:50:57.248Z,3.07
2017-11-26T04:51:57.661Z,3.01
2017-11-26T04:52:58.080Z,3.07
2017-11-26T04:53:58.501Z,3.07
2017-11-26T04:54:58.919Z,3.05
2017-11-26T04:55:59.339Z,3.03
2017-11-26T04:56:59.756Z,3.03
2017-11-26T04:58:00.182Z,2.98
2017-11-26T04:59:00.602Z,2.95
2017-11-26T05:00:01.018Z,2.97
2017-11-26T05:01:01.437Z,2.93
2017-11-26T05:02:01.863Z,3.01
2017-11-26T05:03:02.277Z,3.01
2017-11-26T05:04:02.701Z,2.92
2017-11-26T05:05:03.120Z,3.01
2017-11-26T05:06:03.532Z,2.97
2017-11-26T05:07:03.967Z,2.93
2017-11-26T05:08:04.374Z,2.92
2017-11-26T05:09:04.801Z,2.97
2017-11-26T05:10:05.212Z,2.89
2017-11-26T05:11:05.634Z,2.85
2017-11-26T05:12:06.058Z,2.83
2017-11-26T05:13:06.474Z,2.85
2017-11-26T05:14:06.908Z,2.82
2017-11-26T05:15:07.314Z,2.83
2017-11-26T05:16:07.729Z,2.83
2017-11-26T05:17:08.149Z,2.85
2017-11-26T05:18:08.573Z,2.82
2017-11-26T05:19:08.995Z,2.83
2017-11-26T05:20:09.417Z,2.87
2017-11-26T05:21:09.832Z,2.86
2017-11-26T05:22:10.257Z,2.83
2017-11-26T05:23:10.676Z,2.80
2017-11-26T05:24:11.092Z,2.82
2017-11-26T05:25:11.511Z,2.83
2017-11-26T05:26:11.936Z,2.82
2017-11-26T05:27:12.352Z,2.79
2017-11-26T05:28:12.770Z,2.83
2017-11-26T05:29:13.209Z,2.80
2017-11-26T05:30:13.614Z,2.86
2017-11-26T05:31:14.031Z,2.72
2017-11-26T05:32:14.450Z,2.69
2017-11-26T05:33:14.870Z,2.68
2017-11-26T05:34:15.292Z,2.69
2017-11-26T05:35:15.707Z,2.62
2017-11-26T05:36:16.124Z,2.64
2017-11-26T05:37:16.551Z,2.69
2017-11-26T05:38:16.965Z,2.61
2017-11-26T05:39:17.389Z,2.61
2017-11-26T05:40:17.816Z,2.61
2017-11-26T05:41:18.222Z,2.68
2017-11-26T05:42:18.644Z,2.64
2017-11-26T05:43:19.066Z,2.64
2017-11-26T05:44:19.485Z,2.67
2017-11-26T05:45:19.905Z,2.74
2017-11-26T05:46:20.322Z,2.71
2017-11-26T05:47:20.748Z,2.67
2017-11-26T05:48:21.171Z,2.71
2017-11-26T05:49:21.585Z,2.71
2017-11-26T05:50:22.007Z,2.79
2017-11-26T05:51:22.421Z,2.83
2017-11-26T05:52:22.841Z,2.83
2017-11-26T05:53:23.262Z,2.82
2017-11-26T05:54:23.679Z,2.86
2017-11-26T05:55:24.099Z,2.77
2017-11-26T05:56:24.530Z,2.77
2017-11-26T05:57:24.939Z,2.82
2017-11-26T05:58:25.363Z,2.74
2017-11-26T05:59:25.785Z,2.74
2017-11-26T06:00:26.202Z,2.82
2017-11-26T06:01:26.617Z,2.77
2017-11-26T06:02:27.064Z,2.69
2017-11-26T06:03:27.472Z,2.68
2017-11-26T06:04:27.879Z,2.74
2017-11-26T06:05:28.297Z,2.71
2017-11-26T06:06:28.723Z,2.74
2017-11-26T06:07:29.147Z,2.74
2017-11-26T06:08:29.555Z,2.71
2017-11-26T06:09:29.976Z,2.77
2017-11-26T06:10:30.396Z,2.62
2017-11-26T06:11:30.816Z,2.62
2017-11-26T06:12:31.236Z,2.68
2017-11-26T06:13:31.657Z,2.62
2017-11-26T06:14:32.074Z,2.64
2017-11-26T06:15:32.502Z,2.61
2017-11-26T06:16:32.917Z,2.53
2017-11-26T06:17:33.337Z,2.51
2017-11-26T06:18:33.776Z,2.57
2017-11-26T06:19:34.179Z,2.53
2017-11-26T06:20:34.599Z,2.65
2017-11-26T06:21:35.020Z,2.57
2017-11-26T06:22:35.440Z,2.61
2017-11-26T06:23:35.857Z,2.50
2017-11-26T06:24:36.274Z,2.50
2017-11-26T06:25:36.690Z,2.54
2017-11-26T06:26:37.137Z,2.51
2017-11-26T06:27:37.538Z,2.61
2017-11-26T06:28:37.956Z,2.57
2017-11-26T06:29:38.370Z,2.51
2017-11-26T06:30:38.789Z,2.54
2017-11-26T06:31:39.212Z,2.51
2017-11-26T06:32:39.629Z,2.64
2017-11-26T06:33:40.046Z,2.61
2017-11-26T06:34:40.469Z,2.57
2017-11-26T06:35:40.894Z,2.71
2017-11-26T06:36:41.314Z,2.77
2017-11-26T06:37:41.730Z,2.65
2017-11-26T06:38:42.161Z,2.67
2017-11-26T06:39:42.566Z,2.82
2017-11-26T06:40:42.983Z,2.83
2017-11-26T06:41:43.408Z,2.92
2017-11-26T06:42:43.827Z,2.92
2017-11-26T06:43:44.249Z,2.95
2017-11-26T06:44:44.661Z,3.04
2017-11-26T06:45:45.101Z,3.05
2017-11-26T06:46:45.507Z,3.11
2017-11-26T06:47:45.925Z,3.16
2017-11-26T06:48:46.350Z,3.10
2017-11-26T06:49:46.763Z,3.21
2017-11-26T06:50:47.191Z,3.21
2017-11-26T06:51:47.599Z,3.21
2017-11-26T06:52:48.040Z,3.22
2017-11-26T06:53:48.439Z,3.29
2017-11-26T06:54:48.864Z,3.29
2017-11-26T06:55:49.281Z,3.36
2017-11-26T06:56:49.700Z,3.26
2017-11-26T06:57:50.115Z,3.26
2017-11-26T06:58:50.548Z,3.29
2017-11-26T06:59:50.959Z,3.21
2017-11-26T07:00:51.383Z,3.18
2017-11-26T07:01:51.798Z,3.26
2017-11-26T07:02:52.218Z,3.22
2017-11-26T07:03:52.644Z,3.28
2017-11-26T07:04:53.068Z,3.32
2017-11-26T07:05:53.481Z,3.47
2017-11-26T07:06:53.900Z,3.42
2017-11-26T07:07:54.316Z,3.32
2017-11-26T07:08:54.745Z,3.41
2017-11-26T07:09:55.159Z,3.32
2017-11-26T07:10:55.577Z,3.22
2017-11-26T07:11:55.998Z,3.13
2017-11-26T07:12:56.417Z,3.18
2017-11-26T07:13:56.851Z,3.26
2017-11-26T07:14:57.264Z,3.18
2017-11-26T07:15:57.679Z,3.34
2017-11-26T07:16:58.102Z,3.36
2017-11-26T07:17:58.519Z,3.29
2017-11-26T07:18:58.945Z,3.44
2017-11-26T07:19:59.358Z,3.40
2017-11-26T07:20:59.784Z,3.29
2017-11-26T07:22:00.223Z,3.45
2017-11-26T07:23:00.617Z,3.42
2017-11-26T07:24:01.036Z,3.47
2017-11-26T07:25:01.472Z,3.55
2017-11-26T07:26:01.878Z,3.41
2017-11-26T07:27:02.299Z,3.44
2017-11-26T07:28:02.717Z,3.44
2017-11-26T07:29:03.138Z,3.22
2017-11-26T07:30:03.561Z,3.29
2017-11-26T07:31:03.980Z,3.21
2017-11-26T07:32:04.450Z,3.29
2017-11-26T07:33:04.845Z,3.31
2017-11-26T07:34:05.256Z,3.36
2017-11-26T07:35:05.721Z,3.47
2017-11-26T07:36:06.088Z,3.41
2017-11-26T07:37:06.507Z,3.36
2017-11-26T07:38:06.925Z,3.44
2017-11-26T07:39:07.341Z,3.44
2017-11-26T07:40:07.761Z,3.44
2017-11-26T07:41:08.182Z,3.42
2017-11-26T07:42:08.604Z,3.45
2017-11-26T07:43:09.031Z,3.44
2017-11-26T07:44:09.457Z,3.44
2017-11-26T07:45:09.863Z,3.41
2017-11-26T07:46:10.282Z,3.55
2017-11-26T07:47:10.701Z,3.51
2017-11-26T07:48:11.122Z,3.51
2017-11-26T07:49:11.547Z,3.50
2017-11-26T07:50:11.965Z,3.59
2017-11-26T07:51:12.383Z,3.60
2017-11-26T07:52:12.806Z,3.73
2017-11-26T07:53:13.229Z,3.73
2017-11-26T07:54:13.645Z,3.77
2017-11-26T07:55:14.069Z,3.78
2017-11-26T07:56:14.490Z,3.86
2017-11-26T07:57:14.907Z,3.83
2017-11-26T07:58:15.329Z,3.98
2017-11-26T07:59:15.748Z,3.92
2017-11-26T08:00:16.169Z,4.01
2017-11-26T08:01:16.588Z,4.05
2017-11-26T08:02:17.008Z,4.08
2017-11-26T08:03:17.441Z,3.74
2017-11-26T08:04:17.853Z,3.78
2017-11-26T08:05:18.270Z,4.04
2017-11-26T08:06:18.697Z,4.14
2017-11-26T08:07:19.122Z,3.91
2017-11-26T08:08:19.539Z,4.06
2017-11-26T08:09:19.952Z,4.04
2017-11-26T08:10:20.373Z,4.06
2017-11-26T08:11:20.794Z,4.16
2017-11-26T08:12:21.219Z,4.13
2017-11-26T08:13:21.635Z,4.31
2017-11-26T08:14:22.059Z,4.34
2017-11-26T08:15:22.484Z,4.24
2017-11-26T08:16:22.902Z,4.22
2017-11-26T08:17:23.320Z,4.02
2017-11-26T08:18:23.736Z,4.10
2017-11-26T08:19:24.158Z,3.94
2017-11-26T08:20:24.581Z,3.65
2017-11-26T08:21:25.006Z,3.81
2017-11-26T08:22:25.430Z,3.95
2017-11-26T08:23:25.843Z,3.98
2017-11-26T08:24:26.306Z,3.86
2017-11-26T08:25:26.685Z,3.87
2017-11-26T08:26:27.106Z,3.87
2017-11-26T08:27:27.530Z,3.80
2017-11-26T08:28:27.955Z,3.95
2017-11-26T08:29:28.375Z,3.98
2017-11-26T08:30:28.794Z,4.01
2017-11-26T08:31:29.210Z,4.02
2017-11-26T08:32:29.634Z,3.98
2017-11-26T08:33:30.049Z,3.86
2017-11-26T08:34:30.473Z,3.96
2017-11-26T08:35:30.894Z,4.08
2017-11-26T08:36:31.312Z,4.12
2017-11-26T08:37:31.744Z,4.05
2017-11-26T08:38:32.158Z,4.14
2017-11-26T08:39:32.579Z,3.96
2017-11-26T08:40:33.008Z,3.70
2017-11-26T08:41:33.419Z,3.86
2017-11-26T08:42:33.855Z,3.73
2017-11-26T08:43:34.269Z,3.63
2017-11-26T08:44:34.710Z,3.60
2017-11-26T08:45:35.102Z,3.77
2017-11-26T08:46:35.521Z,3.73
2017-11-26T08:47:35.941Z,3.66
2017-11-26T08:48:36.370Z,6.12
2017-11-26T08:49:36.818Z,6.20
2017-11-26T08:50:39.880Z,6.38
2017-11-26T08:51:37.643Z,6.17
2017-11-26T08:53:15.386Z,6.07
2017-11-26T08:53:39.848Z,6.38
2017-11-26T08:54:38.909Z,6.39
2017-11-26T08:55:39.311Z,6.14
2017-11-26T08:56:39.738Z,6.04
2017-11-26T08:57:40.158Z,6.07
2017-11-26T08:58:40.588Z,5.86
2017-11-26T08:59:40.998Z,5.56
2017-11-26T09:00:41.416Z,5.44
2017-11-26T09:01:41.838Z,5.35
2017-11-26T09:02:42.263Z,5.20
2017-11-26T09:03:42.683Z,5.28
2017-11-26T09:04:43.124Z,5.25
2017-11-26T09:05:43.525Z,5.11
2017-11-26T09:06:43.952Z,5.21
2017-11-26T09:07:44.383Z,5.15
2017-11-26T09:08:44.791Z,5.00
2017-11-26T09:09:45.230Z,5.05
2017-11-26T09:10:45.640Z,5.12
2017-11-26T09:11:46.058Z,5.10
2017-11-26T09:12:46.484Z,5.05
2017-11-26T09:13:46.906Z,5.11
2017-11-26T09:14:47.328Z,5.10
2017-11-26T09:15:47.745Z,5.10
2017-11-26T09:16:48.183Z,5.05
2017-11-26T09:17:48.588Z,5.08
2017-11-26T09:18:49.011Z,5.11
2017-11-26T09:19:49.436Z,4.92
2017-11-26T09:20:49.854Z,4.94
2017-11-26T09:21:50.286Z,4.99
2017-11-26T09:22:50.707Z,5.07
2017-11-26T09:23:51.126Z,5.02
2017-11-26T09:24:51.556Z,5.17
2017-11-26T09:25:51.994Z,4.87
2017-11-26T09:26:52.386Z,4.94
2017-11-26T09:27:52.813Z,4.75
2017-11-26T09:28:53.228Z,4.92
2017-11-26T09:29:53.651Z,5.00
2017-11-26T09:30:54.081Z,5.00
2017-11-26T09:31:54.506Z,4.92
2017-11-26T09:34:28.095Z,5.05
2017-11-26T09:35:28.506Z,5.05
2017-11-26T09:36:30.779Z,5.11
2017-11-26T09:37:29.348Z,5.07
2017-11-26T09:38:29.770Z,5.08
2017-11-26T09:39:30.195Z,5.11
2017-11-26T09:40:30.610Z,5.04
2017-11-26T09:41:31.037Z,4.99
2017-11-26T09:42:31.456Z,5.08
2017-11-26T09:43:53.036Z,5.15
2017-11-26T09:44:32.297Z,5.17
2017-11-26T09:45:32.720Z,5.30
2017-11-26T09:46:33.147Z,5.25
2017-11-26T09:47:33.564Z,5.29
2017-11-26T09:48:33.983Z,5.28
2017-11-26T09:49:34.406Z,5.35
2017-11-26T09:50:34.829Z,5.50
2017-11-26T09:51:35.250Z,5.57
2017-11-26T09:52:35.680Z,5.68
2017-11-26T09:53:36.095Z,5.86
2017-11-26T09:54:36.522Z,6.08
2017-11-26T09:55:36.936Z,6.08
2017-11-26T09:56:37.370Z,5.86
2017-11-26T09:57:37.784Z,6.11
2017-11-26T09:58:38.206Z,6.39
2017-11-26T09:59:38.639Z,6.07
2017-11-26T10:00:39.052Z,6.07
2017-11-26T10:01:39.476Z,6.30
2017-11-26T10:02:39.897Z,6.09
2017-11-26T10:03:40.321Z,6.16
2017-11-26T10:04:40.742Z,6.19
2017-11-26T10:05:41.171Z,6.09
2017-11-26T10:06:41.590Z,6.12
2017-11-26T10:07:42.010Z,6.19
2017-11-26T10:08:42.434Z,6.19
2017-11-26T10:09:42.861Z,6.11
2017-11-26T10:10:43.282Z,6.01
2017-11-26T10:11:43.718Z,5.84
2017-11-26T10:12:44.128Z,5.83
2017-11-26T10:13:44.549Z,5.83
2017-11-26T10:14:44.979Z,5.68
2017-11-26T10:15:45.396Z,5.66
2017-11-26T10:16:45.822Z,5.68
2017-11-26T10:17:46.249Z,5.71
2017-11-26T10:18:46.666Z,5.44
2017-11-26T10:19:47.086Z,5.56
2017-11-26T10:20:47.510Z,5.51
2017-11-26T10:21:47.936Z,5.44
2017-11-26T10:22:48.352Z,5.35
2017-11-26T10:23:48.776Z,5.30
2017-11-26T10:24:49.197Z,5.39
2017-11-26T10:25:49.628Z,5.50
2017-11-26T10:26:50.046Z,5.47
2017-11-26T10:27:50.464Z,5.44
2017-11-26T10:28:50.888Z,5.46
2017-11-26T10:29:51.310Z,5.39
2017-11-26T10:30:51.731Z,5.44
2017-11-26T10:31:52.157Z,5.39
2017-11-26T10:32:52.580Z,5.43
2017-11-26T10:33:52.999Z,5.56
2017-11-26T10:34:53.427Z,5.75
2017-11-26T10:35:53.845Z,5.75
2017-11-26T10:36:54.264Z,5.71
2017-11-26T10:37:54.695Z,5.79
2017-11-26T10:38:55.111Z,5.93
2017-11-26T10:39:55.531Z,6.51
2017-11-26T10:40:55.955Z,6.64
2017-11-26T10:41:56.385Z,6.38
2017-11-26T10:42:56.803Z,7.23
2017-11-26T10:43:57.223Z,7.35
2017-11-26T10:44:57.645Z,7.31
2017-11-26T10:45:58.069Z,6.99
2017-11-26T10:46:58.493Z,6.79
2017-11-26T10:47:58.917Z,6.77
2017-11-26T10:48:59.340Z,6.30
2017-11-26T10:49:59.759Z,6.42
2017-11-26T10:51:00.185Z,6.41
2017-11-26T10:52:00.605Z,6.39
2017-11-26T10:53:01.057Z,6.27
2017-11-26T10:54:01.453Z,6.41
2017-11-26T10:55:01.876Z,6.82
2017-11-26T10:56:02.296Z,7.23
2017-11-26T10:57:02.728Z,7.10
2017-11-26T10:58:03.146Z,7.42
2017-11-26T10:59:03.570Z,7.39
2017-11-26T11:00:03.993Z,7.03
2017-11-26T11:01:04.418Z,7.06
2017-11-26T11:02:04.849Z,7.18
2017-11-26T11:03:05.267Z,7.36
2017-11-26T11:04:05.690Z,6.99
2017-11-26T11:05:06.115Z,7.06
2017-11-26T11:06:06.549Z,7.07
2017-11-26T11:07:06.977Z,7.17
2017-11-26T11:08:07.391Z,7.40
2017-11-26T11:09:07.811Z,7.38
2017-11-26T11:10:08.243Z,7.61
2017-11-26T11:11:08.663Z,7.75
2017-11-26T11:12:09.086Z,7.67
2017-11-26T11:13:09.512Z,7.28
2017-11-26T11:14:09.945Z,6.96
2017-11-26T11:15:10.362Z,6.81
2017-11-26T11:16:10.786Z,6.89
2017-11-26T11:17:11.228Z,7.20
2017-11-26T11:18:11.637Z,7.10
2017-11-26T11:19:12.063Z,7.05
2017-11-26T11:20:12.486Z,6.77
2017-11-26T11:21:12.921Z,7.17
2017-11-26T11:22:13.342Z,7.15
2017-11-26T11:23:13.775Z,7.00
2017-11-26T11:24:14.210Z,7.25
2017-11-26T11:25:14.614Z,7.70
2017-11-26T11:26:15.044Z,7.93
2017-11-26T11:27:15.497Z,7.85
2017-11-26T11:28:15.910Z,7.58
2017-11-26T11:29:16.320Z,7.63
2017-11-26T11:30:16.745Z,7.70
2017-11-26T11:31:17.170Z,7.31
2017-11-26T11:32:17.597Z,7.39
2017-11-26T11:33:18.058Z,7.20
2017-11-26T11:34:18.446Z,7.10
2017-11-26T11:35:18.871Z,7.21
2017-11-26T11:36:19.294Z,7.13
2017-11-26T11:37:19.726Z,7.28
2017-11-26T11:38:20.148Z,7.17
2017-11-26T11:39:20.573Z,7.02
2017-11-26T11:40:21.005Z,6.78
2017-11-26T11:41:21.434Z,6.70
2017-11-26T11:42:21.849Z,6.85
2017-11-26T11:43:22.271Z,6.56
2017-11-26T11:44:22.697Z,6.66
2017-11-26T11:45:23.124Z,6.59
2017-11-26T11:46:23.546Z,6.64
2017-11-26T11:47:23.975Z,6.54
2017-11-26T11:48:24.395Z,6.67
2017-11-26T11:49:24.824Z,6.75
2017-11-26T11:50:25.243Z,7.06
2017-11-26T11:51:25.667Z,7.24
2017-11-26T11:52:26.094Z,7.24
2017-11-26T11:53:26.517Z,7.23
2017-11-26T11:54:26.948Z,7.17
2017-11-26T11:55:27.365Z,7.11
2017-11-26T11:56:27.787Z,7.02
2017-11-26T11:57:28.216Z,6.95
2017-11-26T11:58:28.644Z,6.85
2017-11-26T11:59:29.061Z,6.84
2017-11-26T12:00:29.489Z,6.97
2017-11-26T12:01:29.915Z,7.07
2017-11-26T12:02:30.336Z,7.02
2017-11-26T12:03:30.760Z,6.96
2017-11-26T12:04:31.184Z,6.89
2017-11-26T12:05:31.608Z,6.87
2017-11-26T12:06:32.036Z,6.89
2017-11-26T12:07:32.457Z,6.64
2017-11-26T12:08:32.881Z,6.59
2017-11-26T12:09:33.310Z,6.51
2017-11-26T12:10:33.735Z,6.74
2017-11-26T12:11:34.151Z,6.56
2017-11-26T12:12:34.583Z,6.44
2017-11-26T12:13:35.006Z,6.79
2017-11-26T12:14:35.433Z,6.78
2017-11-26T12:15:35.849Z,6.75
2017-11-26T12:16:36.274Z,6.79
2017-11-26T12:17:36.707Z,6.95
2017-11-26T12:18:37.122Z,7.03
2017-11-26T12:19:37.542Z,7.05
2017-11-26T12:20:37.969Z,7.17
2017-11-26T12:21:38.393Z,7.24
2017-11-26T12:22:38.853Z,7.02
2017-11-26T12:23:53.803Z,6.82
2017-11-26T12:24:39.667Z,6.95
2017-11-26T12:25:40.088Z,6.82
2017-11-26T12:26:40.511Z,6.78
2017-11-26T12:28:02.107Z,6.78
2017-11-26T12:28:41.362Z,6.74
2017-11-26T12:29:41.786Z,6.82
2017-11-26T12:30:42.207Z,6.87
2017-11-26T12:31:42.678Z,6.99
2017-11-26T12:32:43.059Z,7.00
2017-11-26T12:33:43.480Z,7.03
2017-11-26T12:34:43.900Z,7.03
2017-11-26T12:35:44.325Z,7.07
2017-11-26T12:36:44.759Z,7.21
2017-11-26T12:37:45.173Z,7.18
2017-11-26T12:38:45.599Z,6.87
2017-11-26T12:39:46.019Z,6.69
2017-11-26T12:40:46.443Z,6.63
2017-11-26T12:41:46.881Z,6.77
2017-11-26T12:42:47.290Z,6.84
2017-11-26T12:43:47.747Z,6.79
2017-11-26T12:44:48.185Z,6.69
2017-11-26T12:45:48.565Z,6.75
2017-11-26T12:46:48.986Z,6.63
2017-11-26T12:47:49.411Z,6.75
2017-11-26T12:48:49.832Z,6.78
2017-11-26T12:49:50.255Z,6.84
2017-11-26T12:50:50.680Z,7.02
2017-11-26T12:51:51.107Z,7.06
2017-11-26T12:52:51.529Z,7.03
2017-11-26T12:53:51.968Z,6.96
2017-11-26T12:54:52.364Z,6.95
2017-11-26T12:55:52.802Z,6.92
2017-11-26T12:56:53.218Z,6.93
2017-11-26T12:57:53.649Z,7.00
2017-11-26T12:58:54.070Z,6.87
2017-11-26T12:59:54.496Z,6.87
2017-11-26T13:00:54.914Z,6.85
2017-11-26T13:01:55.336Z,6.79
2017-11-26T13:02:55.759Z,6.70
2017-11-26T13:03:56.185Z,6.70
2017-11-26T13:04:56.609Z,6.75
2017-11-26T13:05:57.029Z,6.52
2017-11-26T13:06:57.455Z,6.62
2017-11-26T13:07:57.879Z,6.63
2017-11-26T13:08:58.299Z,6.64
2017-11-26T13:09:58.723Z,6.78
2017-11-26T13:10:59.176Z,6.78
2017-11-26T13:11:59.606Z,6.69
2017-11-26T13:12:59.995Z,6.93
2017-11-26T13:14:00.417Z,6.70
2017-11-26T13:15:00.839Z,6.78
2017-11-26T13:16:01.263Z,6.69
2017-11-26T13:17:01.682Z,6.89
2017-11-26T13:18:02.110Z,6.87
2017-11-26T13:19:02.533Z,6.74
2017-11-26T13:20:02.956Z,6.75
2017-11-26T13:21:03.385Z,6.82
2017-11-26T13:22:03.807Z,6.75
2017-11-26T13:23:04.225Z,6.78
2017-11-26T13:24:04.645Z,6.69
2017-11-26T13:25:05.066Z,6.77
2017-11-26T13:26:05.508Z,6.84